Terminal Aerodrome Forecast
Issued by NWS Bismarck, ND

Home | Current Version | Previous Version | Graphics & Text | Print | Product List | Glossary On
Versions: 1 2 3 4 5 6 7 8 9 10 11 12 13 14 15
000
FTUS43 KBIS 251623 AAD
TAFBIS
TAF AMD
KBIS 251623Z 2516/2612 05007KT P6SM -RA BKN070
     FM251900 09007KT P6SM VCSH SCT035 OVC060
     FM260100 28007KT P6SM BKN080=

USA.gov is the U.S. government's official web portal to all federal, state and local government web resources and services.